createdAt,value
2018-07-22T00:01:17.471Z,10.90
2018-07-22T00:03:48.471Z,13.83
2018-07-22T00:06:19.495Z,13.43
2018-07-22T00:08:50.462Z,10.73
2018-07-22T00:11:21.738Z,13.83
2018-07-22T00:13:52.593Z,13.47
2018-07-22T00:16:23.498Z,10.77
2018-07-22T00:18:54.479Z,13.83
2018-07-22T00:21:25.520Z,10.67
2018-07-22T00:23:56.502Z,13.20
2018-07-22T00:26:27.489Z,14.33
2018-07-22T00:28:58.649Z,12.80
2018-07-22T00:31:29.484Z,13.20
2018-07-22T00:34:00.493Z,9.80
2018-07-22T00:36:31.485Z,13.83
2018-07-22T00:39:02.449Z,9.93
2018-07-22T00:41:33.497Z,12.97
2018-07-22T00:44:04.510Z,12.80
2018-07-22T00:46:35.489Z,13.67
2018-07-22T00:49:06.581Z,10.53
2018-07-22T00:51:37.513Z,12.97
2018-07-22T00:54:08.660Z,13.40
2018-07-22T00:56:39.561Z,12.37
2018-07-22T00:59:10.506Z,9.83
2018-07-22T01:01:41.461Z,13.17
2018-07-22T01:04:12.481Z,9.20
2018-07-22T01:06:43.496Z,13.20
2018-07-22T01:09:14.472Z,13.40
2018-07-22T01:11:45.538Z,14.40
2018-07-22T01:14:16.480Z,9.73
2018-07-22T01:16:47.481Z,12.90
2018-07-22T01:19:18.497Z,10.03
2018-07-22T01:21:49.476Z,12.47
2018-07-22T01:24:20.551Z,9.73
2018-07-22T01:26:51.492Z,12.17
2018-07-22T01:29:22.504Z,12.20
2018-07-22T01:31:53.472Z,8.50
2018-07-22T01:34:24.489Z,11.33
2018-07-22T01:36:55.500Z,11.10
2018-07-22T01:39:26.638Z,9.83
2018-07-22T01:41:57.482Z,7.63
2018-07-22T01:44:28.479Z,9.03
2018-07-22T01:46:59.457Z,9.67
2018-07-22T01:49:30.773Z,9.70
2018-07-22T01:52:01.558Z,9.80
2018-07-22T01:54:32.496Z,10.97
2018-07-22T01:57:03.477Z,7.53
2018-07-22T01:59:34.465Z,10.40
2018-07-22T02:02:05.525Z,10.23
2018-07-22T02:04:36.440Z,10.30
2018-07-22T02:07:07.476Z,7.50
2018-07-22T02:09:38.614Z,9.77
2018-07-22T02:12:09.497Z,10.10
2018-07-22T02:14:40.483Z,9.87
2018-07-22T02:17:11.523Z,10.70
2018-07-22T02:19:42.525Z,10.23
2018-07-22T02:22:13.503Z,12.83
2018-07-22T02:24:44.475Z,10.40
2018-07-22T02:27:15.474Z,13.60
2018-07-22T02:29:46.626Z,14.17
2018-07-22T02:32:17.491Z,14.77
2018-07-22T02:34:48.501Z,10.93
2018-07-22T02:37:19.478Z,13.80
2018-07-22T02:39:50.537Z,14.80
2018-07-22T02:42:21.497Z,13.97
2018-07-22T02:44:52.489Z,9.70
2018-07-22T02:47:23.488Z,12.90
2018-07-22T02:49:54.547Z,12.30
2018-07-22T02:52:25.510Z,8.57
2018-07-22T02:54:56.496Z,11.63
2018-07-22T02:57:27.485Z,7.87
2018-07-22T02:59:58.513Z,9.87
2018-07-22T03:02:29.502Z,10.40
2018-07-22T03:05:00.513Z,9.97
2018-07-22T03:07:31.482Z,11.90
2018-07-22T03:10:02.501Z,11.33
2018-07-22T03:12:33.500Z,11.70
2018-07-22T03:15:04.493Z,9.67
2018-07-22T03:17:35.461Z,12.83
2018-07-22T03:20:06.580Z,12.33
2018-07-22T03:22:37.488Z,13.33
2018-07-22T03:25:08.533Z,16.30
2018-07-22T03:27:39.469Z,12.47
2018-07-22T03:30:10.497Z,16.73
2018-07-22T03:32:41.706Z,16.47
2018-07-22T03:35:12.574Z,16.80
2018-07-22T03:37:43.505Z,15.83
2018-07-22T03:40:15.237Z,15.40
2018-07-22T03:42:46.355Z,15.60
2018-07-22T03:45:17.387Z,12.67
2018-07-22T03:47:48.436Z,16.57
2018-07-22T03:50:19.461Z,16.03
2018-07-22T03:52:50.456Z,15.40
2018-07-22T03:55:21.477Z,16.60
2018-07-22T03:57:52.483Z,11.60
2018-07-22T04:00:23.518Z,17.00
2018-07-22T04:02:55.188Z,16.00
2018-07-22T04:05:26.441Z,17.33
2018-07-22T04:07:57.483Z,17.07
2018-07-22T04:10:28.457Z,15.93
2018-07-22T04:12:59.516Z,15.27
2018-07-22T04:15:30.481Z,14.60
2018-07-22T04:18:01.478Z,15.97
2018-07-22T04:20:32.489Z,12.57
2018-07-22T04:23:03.456Z,15.80
2018-07-22T04:25:34.509Z,16.37
2018-07-22T04:28:05.495Z,17.30
2018-07-22T04:30:36.547Z,16.97
2018-07-22T04:33:07.501Z,18.13
2018-07-22T04:35:38.501Z,14.97
2018-07-22T04:38:09.476Z,19.97
2018-07-22T04:40:40.493Z,13.90
2018-07-22T04:43:11.477Z,17.53
2018-07-22T04:45:42.540Z,18.67
2018-07-22T04:48:13.505Z,18.30
2018-07-22T04:50:44.462Z,17.50
2018-07-22T04:53:15.477Z,17.87
2018-07-22T04:55:46.527Z,17.73
2018-07-22T04:58:17.488Z,17.67
2018-07-22T05:00:48.496Z,17.53
2018-07-22T05:03:19.480Z,16.80
2018-07-22T05:05:50.490Z,16.93
2018-07-22T05:08:21.494Z,16.47
2018-07-22T05:10:52.495Z,16.97
2018-07-22T05:13:23.485Z,18.87
2018-07-22T05:15:54.505Z,14.80
2018-07-22T05:18:25.460Z,21.47
2018-07-22T05:20:56.505Z,19.73
2018-07-22T05:23:27.507Z,20.37
2018-07-22T05:25:58.500Z,20.33
2018-07-22T05:28:29.504Z,20.33
2018-07-22T05:31:00.511Z,21.30
2018-07-22T05:33:31.478Z,16.13
2018-07-22T05:36:02.528Z,21.87
2018-07-22T05:38:33.484Z,22.90
2018-07-22T05:41:04.466Z,22.10
2018-07-22T05:43:35.855Z,23.70
2018-07-22T05:48:38.444Z,22.23
2018-07-22T05:51:09.517Z,22.23
2018-07-22T05:53:40.490Z,22.37
2018-07-22T05:56:11.493Z,22.70
2018-07-22T05:58:42.481Z,17.37
2018-07-22T06:01:13.497Z,20.50
2018-07-22T06:03:44.509Z,17.87
2018-07-22T06:06:15.497Z,21.93
2018-07-22T06:08:46.501Z,18.53
2018-07-22T06:11:17.755Z,21.23
2018-07-22T06:13:48.578Z,22.97
2018-07-22T06:16:19.592Z,22.60
2018-07-22T06:18:50.620Z,23.20
2018-07-22T06:21:21.613Z,22.00
2018-07-22T06:23:52.994Z,17.83
2018-07-22T06:26:24.197Z,22.50
2018-07-22T06:28:55.512Z,22.93
2018-07-22T06:31:26.508Z,23.53
2018-07-22T06:33:57.491Z,22.90
2018-07-22T06:36:28.510Z,18.67
2018-07-22T06:38:59.509Z,22.00
2018-07-22T06:41:30.594Z,21.77
2018-07-22T06:44:01.506Z,22.63
2018-07-22T06:46:32.547Z,17.00
2018-07-22T06:49:03.505Z,20.97
2018-07-22T06:51:34.517Z,21.87
2018-07-22T06:54:05.480Z,21.97
2018-07-22T06:56:36.531Z,22.00
2018-07-22T06:59:07.497Z,19.77
2018-07-22T07:01:39.299Z,20.90
2018-07-22T07:04:10.396Z,20.87
2018-07-22T07:06:41.514Z,17.40
2018-07-22T07:09:13.381Z,21.67
2018-07-22T07:11:44.469Z,19.57
2018-07-22T07:14:15.525Z,16.00
2018-07-22T07:16:46.496Z,20.77
2018-07-22T07:19:17.458Z,21.40
2018-07-22T07:21:48.514Z,14.97
2018-07-22T07:24:19.810Z,21.60
2018-07-22T07:29:21.546Z,21.43
2018-07-22T07:31:52.505Z,20.87
2018-07-22T07:34:23.543Z,21.50
2018-07-22T07:36:54.520Z,22.83
2018-07-22T07:39:25.567Z,15.87
2018-07-22T07:41:56.496Z,19.30
2018-07-22T07:44:27.507Z,14.97
2018-07-22T07:46:58.480Z,20.77
2018-07-22T07:49:29.457Z,21.07
2018-07-22T07:52:00.481Z,15.50
2018-07-22T07:54:31.452Z,20.37
2018-07-22T07:57:02.459Z,19.77
2018-07-22T07:59:33.464Z,16.20
2018-07-22T08:02:04.550Z,20.77
2018-07-22T08:04:35.482Z,15.60
2018-07-22T08:07:06.753Z,19.87
2018-07-22T08:09:38.757Z,17.20
2018-07-22T08:12:09.592Z,21.73
2018-07-22T08:14:41.047Z,17.40
2018-07-22T08:17:12.392Z,19.00
2018-07-22T08:19:44.613Z,15.63
2018-07-22T08:22:15.646Z,19.37
2018-07-22T08:24:47.059Z,15.27
2018-07-22T08:27:18.267Z,20.90
2018-07-22T08:29:49.708Z,14.87
2018-07-22T08:32:23.301Z,18.10
2018-07-22T08:34:54.597Z,11.50
2018-07-22T08:37:25.599Z,16.83
2018-07-22T08:39:56.553Z,12.97
2018-07-22T08:42:27.506Z,17.17
2018-07-22T08:44:58.514Z,12.73
2018-07-22T08:47:30.486Z,15.93
2018-07-22T08:50:01.466Z,11.90
2018-07-22T08:52:32.501Z,12.73
2018-07-22T08:55:04.294Z,15.30
2018-07-22T08:57:35.394Z,10.50
2018-07-22T09:00:07.705Z,13.63
2018-07-22T09:02:38.588Z,9.97
2018-07-22T09:05:09.640Z,13.27
2018-07-22T09:07:41.009Z,9.93
2018-07-22T09:10:12.288Z,11.60
2018-07-22T09:12:43.401Z,9.23
2018-07-22T09:15:14.522Z,11.80
2018-07-22T09:17:45.747Z,9.20
2018-07-22T09:20:16.658Z,13.93
2018-07-22T09:22:47.658Z,9.40
2018-07-22T09:25:19.358Z,13.07
2018-07-22T09:27:50.459Z,9.50
2018-07-22T09:30:21.550Z,10.37
2018-07-22T09:32:53.226Z,10.30
2018-07-22T09:35:24.366Z,12.70
2018-07-22T09:37:55.529Z,10.27
2018-07-22T09:40:26.505Z,10.53
2018-07-22T09:42:57.575Z,8.40
2018-07-22T09:45:28.506Z,7.27
2018-07-22T09:47:59.509Z,11.17
2018-07-22T09:50:30.436Z,8.00
2018-07-22T09:53:01.478Z,8.00
2018-07-22T09:55:32.488Z,10.40
2018-07-22T09:58:03.501Z,6.43
2018-07-22T10:00:41.340Z,6.07
2018-07-22T10:03:12.365Z,6.37
2018-07-22T10:05:43.405Z,6.40
2018-07-22T10:08:14.586Z,6.10
2018-07-22T10:10:45.593Z,8.07
2018-07-22T10:13:16.714Z,6.17
2018-07-22T10:15:47.597Z,8.37
2018-07-22T10:18:18.523Z,6.93
2018-07-22T10:20:49.558Z,7.90
2018-07-22T10:23:20.610Z,6.00
2018-07-22T10:25:51.529Z,7.00
2018-07-22T10:28:22.517Z,6.17
2018-07-22T10:30:53.516Z,7.87
2018-07-22T10:33:24.537Z,6.90
2018-07-22T10:35:55.536Z,6.43
2018-07-22T10:38:26.517Z,5.73
2018-07-22T10:40:57.522Z,6.90
2018-07-22T10:43:28.518Z,5.40
2018-07-22T10:45:59.468Z,5.30
2018-07-22T10:48:30.542Z,5.60
2018-07-22T10:51:01.501Z,5.10
2018-07-22T10:53:32.469Z,6.03
2018-07-22T10:56:03.554Z,4.90
2018-07-22T10:58:34.468Z,5.40
2018-07-22T11:01:05.505Z,4.80
2018-07-22T11:03:36.481Z,5.03
2018-07-22T11:06:07.514Z,5.03
2018-07-22T11:08:38.476Z,6.03
2018-07-22T11:11:09.525Z,4.30
2018-07-22T11:13:40.505Z,4.83
2018-07-22T11:16:11.469Z,4.73
2018-07-22T11:18:42.507Z,6.07
2018-07-22T11:21:13.604Z,4.67
2018-07-22T11:23:44.541Z,4.80
2018-07-22T11:26:15.505Z,4.20
2018-07-22T11:28:46.591Z,4.83
2018-07-22T11:31:17.458Z,6.10
2018-07-22T11:33:48.510Z,4.60
2018-07-22T11:36:19.497Z,6.53
2018-07-22T11:38:50.489Z,5.43
2018-07-22T11:41:21.460Z,4.77
2018-07-22T11:43:52.528Z,4.60
2018-07-22T11:46:24.380Z,5.40
2018-07-22T11:48:55.465Z,6.53
2018-07-22T11:51:26.511Z,5.80
2018-07-22T11:53:57.500Z,6.40
2018-07-22T11:56:28.473Z,5.03
2018-07-22T11:58:59.450Z,4.60
2018-07-22T12:01:30.543Z,5.00
2018-07-22T12:04:01.525Z,6.33
2018-07-22T12:06:32.506Z,4.53
2018-07-22T12:09:03.626Z,5.77
2018-07-22T12:11:34.506Z,4.43
2018-07-22T12:14:05.547Z,5.10
2018-07-22T12:16:36.507Z,5.77
2018-07-22T12:19:07.526Z,4.73
2018-07-22T12:21:38.478Z,4.70
2018-07-22T12:24:09.481Z,5.33
2018-07-22T12:26:40.493Z,4.23
2018-07-22T12:29:11.495Z,4.80
2018-07-22T12:31:42.480Z,5.67
2018-07-22T12:34:13.477Z,4.27
2018-07-22T12:36:44.461Z,4.50
2018-07-22T12:39:15.500Z,4.30
2018-07-22T12:41:46.542Z,4.80
2018-07-22T12:44:17.507Z,6.17
2018-07-22T12:46:48.497Z,4.20
2018-07-22T12:49:19.493Z,4.87
2018-07-22T12:51:50.538Z,5.93
2018-07-22T12:54:21.505Z,4.13
2018-07-22T12:56:52.526Z,5.77
2018-07-22T12:59:23.500Z,5.00
2018-07-22T13:01:54.480Z,5.77
2018-07-22T13:04:25.524Z,4.57
2018-07-22T13:06:56.607Z,6.50
2018-07-22T13:09:27.526Z,5.07
2018-07-22T13:11:58.517Z,6.10
2018-07-22T13:14:29.529Z,5.70
2018-07-22T13:17:00.495Z,6.60
2018-07-22T13:19:31.543Z,4.60
2018-07-22T13:22:02.519Z,6.40
2018-07-22T13:24:33.513Z,5.27
2018-07-22T13:27:04.513Z,7.03
2018-07-22T13:29:35.519Z,4.80
2018-07-22T13:32:06.497Z,6.30
2018-07-22T13:34:37.509Z,5.33
2018-07-22T13:37:08.860Z,6.87
2018-07-22T13:42:10.388Z,7.50
2018-07-22T13:44:41.470Z,5.10
2018-07-22T13:47:12.510Z,6.57
2018-07-22T13:49:43.602Z,5.40
2018-07-22T13:52:14.486Z,6.77
2018-07-22T13:54:45.505Z,5.97
2018-07-22T13:57:16.497Z,5.93
2018-07-22T13:59:47.509Z,6.40
2018-07-22T14:02:18.498Z,8.07
2018-07-22T14:04:50.231Z,5.27
2018-07-22T14:07:21.406Z,5.67
2018-07-22T14:09:52.461Z,5.17
2018-07-22T14:12:23.457Z,6.67
2018-07-22T14:14:54.476Z,5.37
2018-07-22T14:17:25.472Z,6.47
2018-07-22T14:19:56.505Z,5.20
2018-07-22T14:22:27.760Z,7.30
2018-07-22T14:24:58.656Z,5.40
2018-07-22T14:27:29.522Z,7.60
2018-07-22T14:30:00.534Z,5.33
2018-07-22T14:32:31.755Z,6.83
2018-07-22T14:35:02.620Z,5.33
2018-07-22T14:37:33.624Z,5.20
2018-07-22T14:40:05.303Z,7.00
2018-07-22T14:42:36.363Z,5.40
2018-07-22T14:45:09.451Z,7.50
2018-07-22T14:47:40.500Z,5.33
2018-07-22T14:50:11.712Z,7.67
2018-07-22T14:52:42.602Z,8.00
2018-07-22T14:55:13.715Z,6.30
2018-07-22T14:57:44.553Z,7.53
2018-07-22T15:00:15.520Z,6.73
2018-07-22T15:02:46.485Z,11.60
2018-07-22T15:05:17.538Z,6.80
2018-07-22T15:07:48.718Z,8.40
2018-07-22T15:10:19.765Z,8.27
2018-07-22T15:12:50.714Z,9.60
2018-07-22T15:15:21.596Z,6.60
2018-07-22T15:17:53.573Z,8.20
2018-07-22T15:20:24.513Z,6.73
2018-07-22T15:22:56.298Z,8.67
2018-07-22T15:25:27.483Z,7.30
2018-07-22T15:27:58.521Z,9.40
2018-07-22T15:30:29.510Z,7.17
2018-07-22T15:33:00.537Z,7.10
2018-07-22T15:35:31.668Z,9.20
2018-07-22T15:38:02.540Z,7.37
2018-07-22T15:40:33.526Z,9.53
2018-07-22T15:43:05.013Z,7.33
2018-07-22T15:45:36.297Z,9.63
2018-07-22T15:48:07.558Z,7.70
2018-07-22T15:50:38.504Z,10.07
2018-07-22T15:53:09.461Z,8.10
2018-07-22T15:55:40.756Z,10.90
2018-07-22T15:58:11.492Z,7.40
2018-07-22T16:00:42.534Z,7.73
2018-07-22T16:03:13.431Z,7.53
2018-07-22T16:05:44.737Z,8.90
2018-07-22T16:08:16.609Z,8.70
2018-07-22T16:10:47.579Z,7.40
2018-07-22T16:13:18.493Z,8.03
2018-07-22T16:15:49.497Z,6.60
2018-07-22T16:18:20.625Z,8.63
2018-07-22T16:20:52.033Z,6.40
2018-07-22T16:23:23.421Z,8.63
2018-07-22T16:25:54.512Z,6.10
2018-07-22T16:28:25.666Z,8.20
2018-07-22T16:30:56.573Z,6.43
2018-07-22T16:33:27.500Z,8.63
2018-07-22T16:35:58.533Z,6.37
2018-07-22T16:38:29.581Z,8.50
2018-07-22T16:41:00.803Z,6.53
2018-07-22T16:43:31.599Z,9.43
2018-07-22T16:46:02.564Z,8.60
2018-07-22T16:48:33.477Z,6.93
2018-07-22T16:51:04.525Z,8.60
2018-07-22T16:53:35.530Z,6.13
2018-07-22T16:56:06.526Z,9.07
2018-07-22T16:58:37.574Z,6.67
2018-07-22T17:01:08.575Z,10.10
2018-07-22T17:03:39.497Z,6.97
2018-07-22T17:06:11.329Z,8.90
2018-07-22T17:08:42.435Z,9.70
2018-07-22T17:11:13.533Z,7.63
2018-07-22T17:13:44.604Z,11.60
2018-07-22T17:16:15.579Z,9.27
2018-07-22T17:18:46.516Z,11.90
2018-07-22T17:21:17.507Z,9.33
2018-07-22T17:23:48.586Z,11.37
2018-07-22T17:26:19.510Z,12.27
2018-07-22T17:28:50.541Z,10.03
2018-07-22T17:31:21.688Z,13.43
2018-07-22T17:33:52.606Z,10.87
2018-07-22T17:36:23.656Z,13.57
2018-07-22T17:38:54.645Z,13.73
2018-07-22T17:41:25.628Z,13.60
2018-07-22T17:43:56.506Z,9.60
2018-07-22T17:46:27.662Z,13.13
2018-07-22T17:51:47.417Z,13.80
2018-07-22T17:54:18.514Z,13.67
2018-07-22T17:56:49.530Z,13.20
2018-07-22T17:59:20.494Z,9.43
2018-07-22T18:01:51.494Z,13.10
2018-07-22T18:04:22.503Z,12.13
2018-07-22T18:06:53.537Z,12.57
2018-07-22T18:09:24.488Z,9.27
2018-07-22T18:11:55.504Z,12.70
2018-07-22T18:14:26.544Z,12.53
2018-07-22T18:16:57.513Z,12.57
2018-07-22T18:19:28.501Z,12.80
2018-07-22T18:21:59.486Z,11.80
2018-07-22T18:24:30.490Z,9.33
2018-07-22T18:27:01.507Z,12.73
2018-07-22T18:29:32.529Z,13.10
2018-07-22T18:32:03.507Z,10.30
2018-07-22T18:34:34.506Z,13.60
2018-07-22T18:37:05.740Z,13.20
2018-07-22T18:39:36.547Z,9.80
2018-07-22T18:42:07.541Z,13.03
2018-07-22T18:44:38.513Z,13.03
2018-07-22T18:47:09.524Z,10.43
2018-07-22T18:49:40.595Z,13.17
2018-07-22T18:52:11.497Z,10.10
2018-07-22T18:54:42.494Z,13.47
2018-07-22T18:57:13.493Z,13.10
2018-07-22T18:59:44.522Z,13.77
2018-07-22T19:02:15.514Z,14.00
2018-07-22T19:04:46.488Z,14.73
2018-07-22T19:07:17.504Z,13.33
2018-07-22T19:09:48.535Z,14.23
2018-07-22T19:12:19.520Z,11.30
2018-07-22T19:14:50.581Z,14.53
2018-07-22T19:17:21.521Z,14.00
2018-07-22T19:19:52.511Z,11.70
2018-07-22T19:22:23.531Z,15.20
2018-07-22T19:24:54.518Z,14.00
2018-07-22T19:27:25.517Z,13.70
2018-07-22T19:29:56.538Z,14.20
2018-07-22T19:32:27.502Z,14.00
2018-07-22T19:34:58.482Z,10.33
2018-07-22T19:37:29.488Z,13.33
2018-07-22T19:40:00.547Z,10.67
2018-07-22T19:42:31.526Z,13.13
2018-07-22T19:45:02.534Z,14.57
2018-07-22T19:47:33.498Z,9.83
2018-07-22T19:50:04.525Z,14.43
2018-07-22T19:52:35.475Z,14.70
2018-07-22T19:55:06.746Z,15.80
2018-07-22T19:57:37.633Z,13.97
2018-07-22T20:00:08.495Z,11.43
2018-07-22T20:02:39.614Z,15.53
2018-07-22T20:05:10.598Z,16.10
2018-07-22T20:07:41.518Z,12.00
2018-07-22T20:10:12.505Z,16.70
2018-07-22T20:12:43.727Z,16.33
2018-07-22T20:15:15.405Z,16.23
2018-07-22T20:17:46.566Z,15.50
2018-07-22T20:20:17.613Z,11.53
2018-07-22T20:22:48.663Z,15.63
2018-07-22T20:25:19.568Z,15.33
2018-07-22T20:27:50.621Z,14.27
2018-07-22T20:30:21.588Z,14.73
2018-07-22T20:32:52.648Z,11.30
2018-07-22T20:35:23.612Z,15.20
2018-07-22T20:37:54.586Z,14.70
2018-07-22T20:40:25.545Z,10.97
2018-07-22T20:42:56.626Z,14.40
2018-07-22T20:45:27.650Z,14.23
2018-07-22T20:47:58.766Z,14.10
2018-07-22T20:50:30.011Z,10.40
2018-07-22T20:53:01.388Z,14.70
2018-07-22T20:55:32.531Z,10.77
2018-07-22T20:58:03.503Z,14.87
2018-07-22T21:00:34.593Z,14.90
2018-07-22T21:03:07.029Z,14.67
2018-07-22T21:05:38.374Z,14.67
2018-07-22T21:08:09.564Z,11.47
2018-07-22T21:10:40.536Z,15.47
2018-07-22T21:13:28.424Z,11.47
2018-07-22T21:15:59.522Z,15.70
2018-07-22T21:18:30.614Z,16.60
2018-07-22T21:21:01.658Z,15.20
2018-07-22T21:23:32.484Z,15.47
2018-07-22T21:26:03.573Z,15.33
2018-07-22T21:28:34.578Z,16.10
2018-07-22T21:31:05.519Z,16.27
2018-07-22T21:33:36.521Z,16.23
2018-07-22T21:36:07.484Z,12.37
2018-07-22T21:38:38.516Z,16.57
2018-07-22T21:41:09.523Z,16.20
2018-07-22T21:43:40.537Z,16.47
2018-07-22T21:46:11.480Z,16.00
2018-07-22T21:48:42.512Z,15.97
2018-07-22T21:51:13.492Z,15.83
2018-07-22T21:53:44.466Z,15.80
2018-07-22T21:56:15.485Z,16.30
2018-07-22T21:58:46.479Z,15.93
2018-07-22T22:01:17.480Z,16.17
2018-07-22T22:03:48.494Z,15.93
2018-07-22T22:06:19.486Z,12.70
2018-07-22T22:08:50.484Z,16.00
2018-07-22T22:11:21.497Z,17.70
2018-07-22T22:13:52.445Z,17.57
2018-07-22T22:16:23.516Z,13.80
2018-07-22T22:18:54.498Z,17.20
2018-07-22T22:21:25.490Z,17.53
2018-07-22T22:23:56.485Z,17.60
2018-07-22T22:26:27.511Z,17.30
2018-07-22T22:28:58.497Z,12.77
2018-07-22T22:31:29.531Z,16.67
2018-07-22T22:34:00.513Z,17.47
2018-07-22T22:36:31.494Z,17.67
2018-07-22T22:39:02.536Z,17.33
2018-07-22T22:41:33.489Z,16.07
2018-07-22T22:44:04.529Z,16.67
2018-07-22T22:46:35.505Z,13.37
2018-07-22T22:49:06.557Z,18.40
2018-07-22T22:51:37.586Z,18.07
2018-07-22T22:54:08.563Z,14.27
2018-07-22T22:56:39.484Z,17.60
2018-07-22T22:59:19.616Z,17.90
2018-07-22T23:01:51.284Z,18.80
2018-07-22T23:04:22.677Z,18.30
2018-07-22T23:06:53.553Z,19.60
2018-07-22T23:09:24.505Z,13.90
2018-07-22T23:11:55.477Z,19.60
2018-07-22T23:14:26.502Z,14.33
2018-07-22T23:16:57.525Z,18.03
2018-07-22T23:19:28.481Z,14.03
2018-07-22T23:21:59.493Z,19.57
2018-07-22T23:24:30.542Z,14.40
2018-07-22T23:27:01.510Z,20.30
2018-07-22T23:29:33.224Z,14.83
2018-07-22T23:32:04.669Z,19.83
2018-07-22T23:34:35.529Z,14.77
2018-07-22T23:37:06.485Z,20.57
2018-07-22T23:39:37.497Z,15.70
2018-07-22T23:42:08.996Z,19.57
2018-07-22T23:44:40.207Z,15.63
2018-07-22T23:47:11.441Z,21.47
2018-07-22T23:49:42.484Z,20.17
2018-07-22T23:52:13.466Z,15.10
2018-07-22T23:54:44.457Z,20.20
2018-07-22T23:57:15.505Z,14.87
2018-07-22T23:59:46.465Z,19.80
